15:23
Airports
Links
Donate
Help keep this website running!
PayPal
Bitcoin
METAR
ZSPD 191500Z 06003MPS 020V080 8000 OVC020 08/05 Q1023 NOSIG
Current Weather Conditions at ZSPD
MVFR 15:00:00 19-01-18
Altimeter:30.21 hg
Temp:8.0°c 46°f
Dew point:5.0°c 41°f
Wind:6 knots, 6.9 mph, 3 m/s, from 60°
Visibility:4.97 statute miles
2000(OVC) Overcast
No significant weather changes expected within 2 hours.
Past METAR reports
MVFR 14:30:00 19-01-18
Altimeter:30.21 hg
Temp:8.0°c 46°f
Dew point:5.0°c 41°f
Wind:6 knots, 6.9 mph, 3 m/s, from 40°
Visibility:4.35 statute miles
2000(OVC) Overcast
No significant weather changes expected within 2 hours.
ZSPD 191430Z 04003MPS 010V070 7000 OVC020 08/05 Q1023 NOSIG
MVFR 14:00:00 19-01-18
Altimeter:30.21 hg
Temp:8.0°c 46°f
Dew point:5.0°c 41°f
Wind:8 knots, 9.2 mph, 4 m/s, from 40°
Visibility:4.35 statute miles
2000(OVC) Overcast
No significant weather changes expected within 2 hours.
ZSPD 191400Z 04004MPS 7000 OVC020 08/05 Q1023 NOSIG
MVFR 13:30:00 19-01-18
Altimeter:30.24 hg
Temp:8.0°c 46°f
Dew point:5.0°c 41°f
Wind:8 knots, 9.2 mph, 4 m/s, from 30°
Visibility:4.35 statute miles
2000(OVC) Overcast
No significant weather changes expected within 2 hours.
ZSPD 191330Z 03004MPS 7000 OVC020 08/05 Q1024 NOSIG
MVFR 13:00:00 19-01-18
Altimeter:30.24 hg
Temp:8.0°c 46°f
Dew point:4.0°c 39°f
Wind:8 knots, 9.2 mph, 4 m/s, from 20°
Visibility:4.97 statute miles
2000(OVC) Overcast
No significant weather changes expected within 2 hours.
ZSPD 191300Z 02004MPS 8000 OVC020 08/04 Q1024 NOSIG
MVFR 12:30:00 19-01-18
Altimeter:30.24 hg
Temp:8.0°c 46°f
Dew point:5.0°c 41°f
Wind:6 knots, 6.9 mph, 3 m/s, from 30°
Visibility:4.97 statute miles
2000(OVC) Overcast
No significant weather changes expected within 2 hours.
ZSPD 191230Z 03003MPS 8000 OVC020 08/05 Q1024 NOSIG
MVFR 12:00:00 19-01-18
Altimeter:30.24 hg
Temp:8.0°c 46°f
Dew point:5.0°c 41°f
Wind:6 knots, 6.9 mph, 3 m/s, from 20°
Visibility:4.97 statute miles
2000(OVC) Overcast
No significant weather changes expected within 2 hours.
ZSPD 191200Z 02003MPS 350V050 8000 OVC020 08/05 Q1024 NOSIG
TAF
TAF ZSPD 190926Z 1912/2012 03003MPS 3000 BR BKN011 TX11/2006Z TN07/1921Z BECMG 1919/1920 1500 BR BKN005 BECMG 2000/2001 3500 BR BKN015
Forecast at ZSPD
12:00 19-01-18 to 19:00 19-01-18
BR
Wind:6 Knots from 30°
Visibility:1.86 statute miles
1100BKN Broken
BECMG 19:00 19-01-18 to 00:00 20-01-18
BR
Wind:6 Knots from 30°
Visibility:0.93 statute miles
500BKN Broken
BECMG 00:00 20-01-18 to 12:00 20-01-18
BR
Wind:6 Knots from 30°
Visibility:2.17 statute miles
1500BKN Broken